createdAt,value
2023-05-12T00:02:28.292Z,10.25
2023-05-12T00:05:31.582Z,14.35
2023-05-12T00:08:34.902Z,9.45
2023-05-12T00:11:38.731Z,10.07
2023-05-12T00:14:43.372Z,12.25
2023-05-12T00:17:46.567Z,10.07
2023-05-12T00:20:50.387Z,11.48
2023-05-12T00:23:53.632Z,9.45
2023-05-12T00:26:56.879Z,10.23
2023-05-12T00:30:01.446Z,9.63
2023-05-12T00:33:04.762Z,10.65
2023-05-12T00:36:09.102Z,14.73
2023-05-12T00:39:12.474Z,12.98
2023-05-12T00:42:15.670Z,11.65
2023-05-12T00:45:21.987Z,12.43
2023-05-12T00:48:25.909Z,11.10
2023-05-12T00:51:29.757Z,13.57
2023-05-12T00:54:33.398Z,11.18
2023-05-12T00:57:36.591Z,11.80
2023-05-12T01:00:41.836Z,15.25
2023-05-12T01:03:46.120Z,11.73
2023-05-12T01:06:55.244Z,13.43
2023-05-12T01:09:58.937Z,16.75
2023-05-12T01:13:04.315Z,12.50
2023-05-12T01:16:13.785Z,16.88
2023-05-12T01:19:30.887Z,13.13
2023-05-12T01:22:34.800Z,15.90
2023-05-12T01:25:41.502Z,11.23
2023-05-12T01:28:47.060Z,14.35
2023-05-12T01:31:51.720Z,14.63
2023-05-12T01:34:55.055Z,12.73
2023-05-12T01:37:58.693Z,11.95
2023-05-12T01:41:02.155Z,15.35
2023-05-12T01:44:06.954Z,13.50
2023-05-12T01:47:11.296Z,14.10
2023-05-12T01:50:16.301Z,13.60
2023-05-12T01:53:19.653Z,16.38
2023-05-12T01:56:23.257Z,13.27
2023-05-12T01:59:28.033Z,11.70
2023-05-12T02:02:33.857Z,13.85
2023-05-12T02:05:37.915Z,12.63
2023-05-12T02:08:41.626Z,19.35
2023-05-12T02:11:45.320Z,14.43
2023-05-12T02:14:51.012Z,13.32
2023-05-12T02:17:55.292Z,13.63
2023-05-12T02:20:59.962Z,18.02
2023-05-12T02:24:03.236Z,14.75
2023-05-12T02:27:07.846Z,12.27
2023-05-12T02:30:13.019Z,15.65
2023-05-12T02:33:16.310Z,23.30
2023-05-12T02:36:19.470Z,20.52
2023-05-12T02:39:22.644Z,15.50
2023-05-12T02:42:28.816Z,20.45
2023-05-12T02:45:33.874Z,12.88
2023-05-12T02:48:37.116Z,16.45
2023-05-12T02:51:40.332Z,15.75
2023-05-12T02:54:43.502Z,18.80
2023-05-12T02:57:46.670Z,14.48
2023-05-12T03:00:59.866Z,15.32
2023-05-12T03:04:10.937Z,14.20
2023-05-12T03:07:14.187Z,17.98
2023-05-12T03:10:18.150Z,16.13
2023-05-12T03:13:21.482Z,15.98
2023-05-12T03:16:26.155Z,16.00
2023-05-12T03:19:29.363Z,15.38
2023-05-12T03:22:32.635Z,17.77
2023-05-12T03:25:35.915Z,15.45
2023-05-12T03:28:39.080Z,16.20
2023-05-12T03:31:43.733Z,16.95
2023-05-12T03:34:47.707Z,15.02
2023-05-12T03:37:51.940Z,13.73
2023-05-12T03:41:05.019Z,18.00
2023-05-12T03:44:08.754Z,16.40
2023-05-12T03:47:13.673Z,17.25
2023-05-12T03:50:17.436Z,18.67
2023-05-12T03:53:20.949Z,14.60
2023-05-12T03:56:24.486Z,15.50
2023-05-12T03:59:27.735Z,14.77
2023-05-12T04:02:32.884Z,14.85
2023-05-12T04:05:39.338Z,16.00
2023-05-12T04:08:42.552Z,14.63
2023-05-12T04:11:46.024Z,10.95
2023-05-12T04:14:49.219Z,16.50
2023-05-12T04:17:53.841Z,12.63
2023-05-12T04:20:57.280Z,14.40
2023-05-12T04:24:00.555Z,13.38
2023-05-12T04:27:08.050Z,13.30
2023-05-12T04:30:13.116Z,14.00
2023-05-12T04:33:19.680Z,15.02
2023-05-12T04:36:23.215Z,13.27
2023-05-12T04:39:26.554Z,14.45
2023-05-12T04:42:30.020Z,13.63
2023-05-12T04:45:33.790Z,30.92
2023-05-12T04:48:42.140Z,13.95
2023-05-12T04:51:45.544Z,13.50
2023-05-12T04:54:49.243Z,12.77
2023-05-12T04:57:52.989Z,17.45
2023-05-12T05:00:56.653Z,15.73
2023-05-12T05:04:01.364Z,15.05
2023-05-12T05:07:04.784Z,15.38
2023-05-12T05:10:10.046Z,12.20
2023-05-12T05:13:14.536Z,12.57
2023-05-12T05:16:18.058Z,13.95
2023-05-12T05:19:35.610Z,16.13
2023-05-12T05:22:48.345Z,14.35
2023-05-12T05:25:52.026Z,11.90
2023-05-12T05:28:56.236Z,14.38
2023-05-12T05:32:01.513Z,14.27
2023-05-12T05:35:08.471Z,18.20
2023-05-12T05:38:15.671Z,10.57
2023-05-12T05:41:18.977Z,15.68
2023-05-12T05:44:22.433Z,19.27
2023-05-12T05:47:25.907Z,11.82
2023-05-12T05:50:30.830Z,14.32
2023-05-12T05:53:34.085Z,16.45
2023-05-12T05:56:37.387Z,9.55
2023-05-12T05:59:40.771Z,11.95
2023-05-12T06:02:44.338Z,8.02
2023-05-12T06:05:53.172Z,8.55
2023-05-12T06:08:56.933Z,12.63
2023-05-12T06:12:07.134Z,8.05
2023-05-12T06:15:11.332Z,12.75
2023-05-12T06:18:14.494Z,9.30
2023-05-12T06:21:19.095Z,14.02
2023-05-12T06:24:23.052Z,8.90
2023-05-12T06:27:26.846Z,10.75
2023-05-12T06:30:30.237Z,11.43
2023-05-12T06:33:33.516Z,7.20
2023-05-12T06:36:38.593Z,8.85
2023-05-12T06:39:42.241Z,12.43
2023-05-12T06:42:48.319Z,9.05
2023-05-12T06:49:01.407Z,12.48
2023-05-12T06:52:06.960Z,9.73
2023-05-12T06:55:10.725Z,7.70
2023-05-12T06:58:14.026Z,6.55
2023-05-12T07:01:17.442Z,12.48
2023-05-12T07:04:21.701Z,10.63
2023-05-12T07:07:26.450Z,8.25
2023-05-12T07:10:29.783Z,5.78
2023-05-12T07:13:33.098Z,10.27
2023-05-12T07:16:36.305Z,7.05
2023-05-12T07:19:40.142Z,8.60
2023-05-12T07:22:44.890Z,10.27
2023-05-12T07:25:48.210Z,7.82
2023-05-12T07:28:51.502Z,7.38
2023-05-12T07:31:54.814Z,7.20
2023-05-12T07:34:58.033Z,10.70
2023-05-12T07:38:03.348Z,6.18
2023-05-12T07:41:06.654Z,14.43
2023-05-12T07:44:10.022Z,9.75
2023-05-12T07:47:13.287Z,9.85
2023-05-12T07:50:16.578Z,6.97
2023-05-12T07:53:21.354Z,6.85
2023-05-12T07:56:24.723Z,6.55
2023-05-12T07:59:28.328Z,11.32
2023-05-12T08:02:31.709Z,16.00
2023-05-12T08:05:35.314Z,15.02
2023-05-12T08:08:39.999Z,16.40
2023-05-12T08:11:46.575Z,22.38
2023-05-12T08:14:50.909Z,14.00
2023-05-12T08:17:54.196Z,9.93
2023-05-12T08:20:57.541Z,10.85
2023-05-12T08:24:02.126Z,9.23
2023-05-12T08:27:05.615Z,6.88
2023-05-12T08:30:09.907Z,7.55
2023-05-12T08:33:13.953Z,11.75
2023-05-12T08:36:17.179Z,7.20
2023-05-12T08:39:22.080Z,4.90
2023-05-12T08:42:36.758Z,16.27
2023-05-12T08:45:41.287Z,11.63
2023-05-12T08:48:47.505Z,4.22
2023-05-12T08:51:57.291Z,9.38
2023-05-12T08:58:09.752Z,7.05
2023-05-12T09:01:15.051Z,13.00
2023-05-12T09:04:18.759Z,13.75
2023-05-12T09:07:24.393Z,7.55
2023-05-12T09:10:35.150Z,8.70
2023-05-12T09:13:48.130Z,9.43
2023-05-12T09:16:57.021Z,8.60
2023-05-12T09:20:00.520Z,11.65
2023-05-12T09:23:17.587Z,8.32
2023-05-12T09:26:23.732Z,9.55
2023-05-12T09:29:31.717Z,7.38
2023-05-12T09:32:37.323Z,7.22
2023-05-12T09:35:41.748Z,10.38
2023-05-12T09:38:45.681Z,16.52
2023-05-12T09:41:50.515Z,9.38
2023-05-12T09:44:53.681Z,6.05
2023-05-12T09:47:57.636Z,10.45
2023-05-12T09:51:01.795Z,13.70
2023-05-12T09:54:07.612Z,7.15
2023-05-12T09:57:14.791Z,6.68
2023-05-12T10:00:33.252Z,7.88
2023-05-12T10:03:42.772Z,9.27
2023-05-12T10:06:47.524Z,7.07
2023-05-12T10:09:51.183Z,6.95
2023-05-12T10:12:56.336Z,9.95
2023-05-12T10:16:01.192Z,4.38
2023-05-12T10:19:05.384Z,9.43
2023-05-12T10:22:12.197Z,6.25
2023-05-12T10:25:16.274Z,7.80
2023-05-12T10:28:21.100Z,8.73
2023-05-12T10:31:25.712Z,9.05
2023-05-12T10:34:31.679Z,6.75
2023-05-12T10:37:36.711Z,12.35
2023-05-12T10:40:52.632Z,15.00
2023-05-12T10:43:57.294Z,12.15
2023-05-12T10:47:00.903Z,9.55
2023-05-12T10:50:04.434Z,13.40
2023-05-12T10:53:09.218Z,15.93
2023-05-12T10:56:13.988Z,7.53
2023-05-12T10:59:20.729Z,6.82
2023-05-12T11:02:30.293Z,9.07
2023-05-12T11:05:37.720Z,7.72
2023-05-12T11:08:42.672Z,6.75
2023-05-12T11:11:47.598Z,7.55
2023-05-12T11:14:52.968Z,7.80
2023-05-12T11:17:56.417Z,4.72
2023-05-12T11:21:00.089Z,6.45
2023-05-12T11:24:04.045Z,13.13
2023-05-12T11:27:08.513Z,4.38
2023-05-12T11:30:13.804Z,10.43
2023-05-12T11:33:22.131Z,7.32
2023-05-12T11:36:25.620Z,7.15
2023-05-12T11:39:32.319Z,6.20
2023-05-12T11:42:35.684Z,6.05
2023-05-12T11:45:40.383Z,6.47
2023-05-12T11:48:43.932Z,6.20
2023-05-12T11:51:47.351Z,8.32
2023-05-12T11:54:52.099Z,4.82
2023-05-12T11:58:03.282Z,7.25
2023-05-12T12:01:12.810Z,9.77
2023-05-12T12:04:16.458Z,10.90
2023-05-12T12:07:31.755Z,12.48
2023-05-12T12:10:35.959Z,6.30
2023-05-12T12:13:39.433Z,9.25
2023-05-12T12:16:44.114Z,9.25
2023-05-12T12:19:47.919Z,4.80
2023-05-12T12:22:51.291Z,7.25
2023-05-12T12:25:54.973Z,18.70
2023-05-12T12:28:58.318Z,11.60
2023-05-12T12:32:03.290Z,8.00
2023-05-12T12:35:07.444Z,5.40
2023-05-12T12:38:10.821Z,7.18
2023-05-12T12:41:14.197Z,7.22
2023-05-12T12:44:17.770Z,6.35
2023-05-12T12:47:23.400Z,6.53
2023-05-12T12:50:27.383Z,8.68
2023-05-12T12:53:30.686Z,8.48
2023-05-12T12:56:34.318Z,12.88
2023-05-12T12:59:37.577Z,9.95
2023-05-12T13:02:42.513Z,9.88
2023-05-12T13:05:45.962Z,7.78
2023-05-12T13:08:50.524Z,4.90
2023-05-12T13:11:53.952Z,6.90
2023-05-12T13:14:57.211Z,6.88
2023-05-12T13:18:01.858Z,8.35
2023-05-12T13:21:05.608Z,7.68
2023-05-12T13:24:09.353Z,3.75
2023-05-12T13:27:12.674Z,5.60
2023-05-12T13:30:16.209Z,3.15
2023-05-12T13:33:21.075Z,9.35
2023-05-12T13:36:24.319Z,9.23
2023-05-12T13:39:27.536Z,3.90
2023-05-12T13:42:30.969Z,6.32
2023-05-12T13:45:34.188Z,7.32
2023-05-12T13:48:38.934Z,12.00
2023-05-12T13:51:42.162Z,6.70
2023-05-12T13:54:45.471Z,5.72
2023-05-12T13:57:48.852Z,6.50
2023-05-12T14:00:52.866Z,6.35
2023-05-12T14:03:57.435Z,5.10
2023-05-12T14:07:00.833Z,7.30
2023-05-12T14:10:04.383Z,6.43
2023-05-12T14:13:08.595Z,7.45
2023-05-12T14:16:14.165Z,4.28
2023-05-12T14:19:19.101Z,10.20
2023-05-12T14:22:26.565Z,7.70
2023-05-12T14:25:31.242Z,6.18
2023-05-12T14:28:34.672Z,7.25
2023-05-12T14:31:38.188Z,8.85
2023-05-12T14:34:42.843Z,8.48
2023-05-12T14:37:46.092Z,9.10
2023-05-12T14:40:49.982Z,6.88
2023-05-12T14:43:53.353Z,5.72
2023-05-12T14:46:56.813Z,6.35
2023-05-12T14:50:01.414Z,7.28
2023-05-12T14:53:04.837Z,8.13
2023-05-12T14:56:08.183Z,9.68
2023-05-12T14:59:11.414Z,5.22
2023-05-12T15:02:14.778Z,6.57
2023-05-12T15:05:19.693Z,7.05
2023-05-12T15:08:23.385Z,25.00
2023-05-12T15:11:26.922Z,6.85
2023-05-12T15:14:30.159Z,4.53
2023-05-12T15:17:33.486Z,5.15
2023-05-12T15:20:39.604Z,13.13
2023-05-12T15:23:44.028Z,6.28
2023-05-12T15:26:47.285Z,3.72
2023-05-12T15:29:50.706Z,11.63
2023-05-12T15:32:54.117Z,4.43
2023-05-12T15:35:58.768Z,5.18
2023-05-12T15:39:03.147Z,5.10
2023-05-12T15:42:07.429Z,4.65
2023-05-12T15:45:11.438Z,5.47
2023-05-12T15:48:15.033Z,8.10
2023-05-12T15:51:19.807Z,7.63
2023-05-12T15:54:23.147Z,4.13
2023-05-12T15:57:26.824Z,5.13
2023-05-12T16:00:30.263Z,10.77
2023-05-12T16:03:33.757Z,4.88
2023-05-12T16:06:38.653Z,7.53
2023-05-12T16:09:41.916Z,5.93
2023-05-12T16:12:48.054Z,6.60
2023-05-12T16:15:51.914Z,11.85
2023-05-12T16:18:55.247Z,7.00
2023-05-12T16:22:00.298Z,6.38
2023-05-12T16:25:04.806Z,5.10
2023-05-12T16:28:08.091Z,5.28
2023-05-12T16:31:11.589Z,5.30
2023-05-12T16:34:14.774Z,4.57
2023-05-12T16:37:19.393Z,7.45
2023-05-12T16:40:23.063Z,6.88
2023-05-12T16:43:26.376Z,20.65
2023-05-12T16:46:29.764Z,9.27
2023-05-12T16:49:33.036Z,7.35
2023-05-12T16:52:37.645Z,9.55
2023-05-12T16:55:41.032Z,10.43
2023-05-12T16:58:44.344Z,5.43
2023-05-12T17:01:47.872Z,7.63
2023-05-12T17:04:51.157Z,7.20
2023-05-12T17:07:55.831Z,7.38
2023-05-12T17:10:59.194Z,6.60
2023-05-12T17:14:04.036Z,8.30
2023-05-12T17:17:07.424Z,9.68
2023-05-12T17:20:11.933Z,9.95
2023-05-12T17:23:16.917Z,13.27
2023-05-12T17:26:20.913Z,8.63
2023-05-12T17:29:24.443Z,11.13
2023-05-12T17:32:28.262Z,8.43
2023-05-12T17:35:32.597Z,9.55
2023-05-12T17:38:37.312Z,7.10
2023-05-12T17:41:40.764Z,10.52
2023-05-12T17:44:44.191Z,7.30
2023-05-12T17:47:48.554Z,10.02
2023-05-12T17:50:52.042Z,8.88
2023-05-12T17:53:56.919Z,11.43
2023-05-12T17:57:00.533Z,12.18
2023-05-12T18:00:09.416Z,11.10
2023-05-12T18:03:23.313Z,11.23
2023-05-12T18:06:26.970Z,16.15
2023-05-12T18:09:34.086Z,12.38
2023-05-12T18:12:37.751Z,13.40
2023-05-12T18:15:41.673Z,14.45
2023-05-12T18:18:47.286Z,12.57
2023-05-12T18:21:52.382Z,20.05
2023-05-12T18:24:57.545Z,17.55
2023-05-12T18:28:01.862Z,22.35
2023-05-12T18:31:15.163Z,25.77
2023-05-12T18:34:19.480Z,22.35
2023-05-12T18:37:23.417Z,26.35
2023-05-12T18:40:28.486Z,18.38
2023-05-12T18:43:32.000Z,15.70
2023-05-12T18:46:36.446Z,19.77
2023-05-12T18:49:39.886Z,14.88
2023-05-12T18:52:43.927Z,22.50
2023-05-12T18:55:49.720Z,19.48
2023-05-12T18:58:53.022Z,13.65
2023-05-12T19:01:56.717Z,17.45
2023-05-12T19:05:00.124Z,19.45
2023-05-12T19:08:03.583Z,14.63
2023-05-12T19:11:08.689Z,17.02
2023-05-12T19:14:12.149Z,26.08
2023-05-12T19:17:15.425Z,21.33
2023-05-12T19:20:19.080Z,16.77
2023-05-12T19:23:22.554Z,15.40
2023-05-12T19:26:27.876Z,21.83
2023-05-12T19:29:31.244Z,27.08
2023-05-12T19:32:35.059Z,14.82
2023-05-12T19:35:38.591Z,22.15
2023-05-12T19:38:43.651Z,17.88
2023-05-12T19:41:48.894Z,15.45
2023-05-12T19:44:53.971Z,16.67
2023-05-12T19:47:58.066Z,19.15
2023-05-12T19:51:01.675Z,13.95
2023-05-12T19:54:06.546Z,16.95
2023-05-12T19:57:11.424Z,17.25
2023-05-12T20:00:15.655Z,22.23
2023-05-12T20:03:19.589Z,20.00
2023-05-12T20:06:25.194Z,21.40
2023-05-12T20:09:28.886Z,23.40
2023-05-12T20:12:33.955Z,25.42
2023-05-12T20:15:37.377Z,23.50
2023-05-12T20:18:40.858Z,25.30
2023-05-12T20:21:44.437Z,28.70
2023-05-12T20:24:47.770Z,25.55
2023-05-12T20:27:55.434Z,23.88
2023-05-12T20:30:59.121Z,27.70
2023-05-12T20:34:02.801Z,30.52
2023-05-12T20:37:06.528Z,29.90
2023-05-12T20:40:10.969Z,43.63
2023-05-12T20:43:15.840Z,33.05
2023-05-12T20:46:19.595Z,33.83
2023-05-12T20:49:22.997Z,34.55
2023-05-12T20:52:28.959Z,38.63
2023-05-12T20:55:34.112Z,28.35
2023-05-12T20:58:38.880Z,27.67
2023-05-12T21:01:42.297Z,25.20
2023-05-12T21:04:45.627Z,28.98
2023-05-12T21:07:48.961Z,29.20
2023-05-12T21:10:52.557Z,24.20
2023-05-12T21:13:57.357Z,29.75
2023-05-12T21:17:00.729Z,28.15
2023-05-12T21:20:04.175Z,25.15
2023-05-12T21:23:09.505Z,27.95
2023-05-12T21:26:12.733Z,32.25
2023-05-12T21:29:17.791Z,31.27
2023-05-12T21:32:21.171Z,30.60
2023-05-12T21:35:24.477Z,37.00
2023-05-12T21:38:28.316Z,38.40
2023-05-12T21:41:31.853Z,33.85
2023-05-12T21:44:36.558Z,33.22
2023-05-12T21:47:39.979Z,39.83
2023-05-12T21:50:43.376Z,33.05
2023-05-12T21:53:46.687Z,34.70
2023-05-12T21:56:50.577Z,35.03
2023-05-12T21:59:56.259Z,38.40
2023-05-12T22:02:59.538Z,44.78
2023-05-12T22:06:03.005Z,40.65
2023-05-12T22:09:06.287Z,42.65
2023-05-12T22:12:13.551Z,37.28
2023-05-12T22:15:18.624Z,41.63
2023-05-12T22:18:22.005Z,36.63
2023-05-12T22:21:25.482Z,40.42
2023-05-12T22:24:29.179Z,39.42
2023-05-12T22:27:32.802Z,35.03
2023-05-12T22:30:37.515Z,37.35
2023-05-12T22:33:41.230Z,31.75
2023-05-12T22:36:44.521Z,34.80
2023-05-12T22:39:47.816Z,35.67
2023-05-12T22:42:51.254Z,41.67
2023-05-12T22:45:56.831Z,38.03
2023-05-12T22:49:00.025Z,42.00
2023-05-12T22:52:03.354Z,39.60
2023-05-12T22:55:07.396Z,38.03
2023-05-12T22:58:11.662Z,45.25
2023-05-12T23:01:16.736Z,55.17
2023-05-12T23:04:20.201Z,53.15
2023-05-12T23:07:23.871Z,48.50
2023-05-12T23:10:27.140Z,51.85
2023-05-12T23:13:30.908Z,54.53
2023-05-12T23:16:35.679Z,52.25
2023-05-12T23:19:40.131Z,53.67
2023-05-12T23:22:43.561Z,48.97
2023-05-12T23:25:48.297Z,48.05
2023-05-12T23:28:52.057Z,47.35
2023-05-12T23:31:58.777Z,48.15
2023-05-12T23:35:02.179Z,44.03
2023-05-12T23:38:05.604Z,48.08
2023-05-12T23:41:08.891Z,46.13
2023-05-12T23:44:12.549Z,47.08
2023-05-12T23:47:17.875Z,45.45
2023-05-12T23:50:21.868Z,43.75
2023-05-12T23:53:25.743Z,45.25
2023-05-12T23:56:29.038Z,48.63
2023-05-12T23:59:32.391Z,45.50
